Time;durP1;ratioP1;P1;durP2;ratioP2;P2;SDS_P1;SDS_P2;PMS_P1;PMS_P2;Temp;Humidity;BMP_temperature;BMP_pressure;BME280_temperature;BME280_humidity;BME280_pressure;Samples;Min_cycle;Max_cycle;Signal;HPM_P1;HPM_P2
2022/09/05 00:02:28;;;;;;;1.30;1.20;;;9.10;99.90;;;;;;6154621;23;20022;-72
2022/09/05 00:05:16;;;;;;;3.03;1.50;;;9.10;99.90;;;;;;6154242;23;20045;-72
2022/09/05 00:07:53;;;;;;;1.83;1.40;;;9.10;99.90;;;;;;6152275;23;20570;-72
2022/09/05 00:10:32;;;;;;;2.15;1.30;;;9.10;99.90;;;;;;6153322;23;20395;-72
2022/09/05 00:13:02;;;;;;;2.55;1.40;;;9.10;99.90;;;;;;6154172;23;20025;-72
2022/09/05 00:15:39;;;;;;;1.33;1.23;;;9.10;99.90;;;;;;6153906;23;20032;-72
2022/09/05 00:18:27;;;;;;;1.73;1.63;;;9.10;99.90;;;;;;6127241;23;20026;-72
2022/09/05 00:21:05;;;;;;;2.90;1.17;;;9.10;99.90;;;;;;6153917;23;20080;-71
2022/09/05 00:23:47;;;;;;;1.73;1.42;;;9.10;99.90;;;;;;6153718;23;20105;-72
2022/09/05 00:26:33;;;;;;;1.38;1.27;;;9.10;99.90;;;;;;6153974;23;20022;-72
2022/09/05 00:29:16;;;;;;;1.55;1.30;;;9.10;99.90;;;;;;6152089;23;20064;-72
2022/09/05 00:31:57;;;;;;;1.35;1.25;;;9.10;99.90;;;;;;6154398;23;20478;-72
2022/09/05 00:34:50;;;;;;;3.60;1.30;;;9.10;99.90;;;;;;6152465;23;20108;-72
2022/09/05 00:37:32;;;;;;;;;;;9.10;99.90;;;;;;6154762;23;20032;-72
2022/09/05 00:40:18;;;;;;;2.33;1.65;;;9.10;99.90;;;;;;6153556;23;19972;-73
2022/09/05 00:42:49;;;;;;;1.75;1.50;;;9.10;99.90;;;;;;6153893;23;20466;-72
2022/09/05 00:45:28;;;;;;;1.50;1.40;;;9.10;99.90;;;;;;6153984;23;20056;-72
2022/09/05 00:48:12;;;;;;;1.73;1.35;;;9.10;99.90;;;;;;6153004;23;20454;-72
2022/09/05 00:51:00;;;;;;;2.00;1.52;;;9.10;99.90;;;;;;6153613;23;20021;-72
2022/09/05 00:53:40;;;;;;;2.67;1.25;;;9.10;99.90;;;;;;6153825;23;20396;-71
2022/09/05 00:56:27;;;;;;;1.27;1.17;;;9.20;99.90;;;;;;6153281;23;20026;-72
2022/09/05 00:59:34;;;;;;;2.05;1.73;;;9.20;99.90;;;;;;6153613;23;20795;-73
2022/09/05 01:02:14;;;;;;;1.50;1.40;;;9.20;99.90;;;;;;6127721;23;20024;-73
2022/09/05 01:04:52;;;;;;;1.20;1.10;;;9.20;99.90;;;;;;6127034;23;20025;-73
2022/09/05 01:07:37;;;;;;;1.77;1.17;;;9.30;99.90;;;;;;6153972;23;20079;-72
2022/09/05 01:10:18;;;;;;;2.78;1.20;;;9.30;99.90;;;;;;6152917;23;20029;-73
2022/09/05 01:13:17;;;;;;;1.58;1.30;;;9.30;99.90;;;;;;6153572;23;20084;-73
2022/09/05 01:15:54;;;;;;;1.98;1.40;;;9.30;99.90;;;;;;6102734;23;20025;-72
2022/09/05 01:18:37;;;;;;;2.22;1.10;;;9.30;99.90;;;;;;6151806;23;20017;-72
2022/09/05 01:21:18;;;;;;;;;;;9.30;99.90;;;;;;6153161;23;20049;-72
2022/09/05 01:24:02;;;;;;;3.30;1.67;;;9.30;99.90;;;;;;6154037;23;19927;-73
2022/09/05 01:27:26;;;;;;;1.50;1.40;;;9.30;99.90;;;;;;6153500;23;20513;-72
2022/09/05 01:29:56;;;;;;;;;;;9.40;99.90;;;;;;6127240;23;20029;-73
2022/09/05 01:32:37;;;;;;;2.88;1.40;;;9.40;99.90;;;;;;6153857;23;20317;-72
2022/09/05 01:35:53;;;;;;;1.70;1.30;;;9.40;99.90;;;;;;6153901;23;20027;-72
2022/09/05 01:38:34;;;;;;;2.00;1.38;;;9.30;99.90;;;;;;6153336;23;20036;-73
2022/09/05 01:41:20;;;;;;;1.40;1.30;;;9.30;99.90;;;;;;6151095;23;20100;-73
2022/09/05 01:44:37;;;;;;;2.10;1.52;;;9.30;99.90;;;;;;6153153;23;20335;-72
2022/09/05 01:47:34;;;;;;;1.48;1.30;;;9.20;99.90;;;;;;6062628;23;20078;-72
2022/09/05 01:50:16;;;;;;;3.20;1.10;;;9.20;99.90;;;;;;6062759;23;20033;-72
2022/09/05 01:53:12;;;;;;;2.75;1.10;;;9.10;99.90;;;;;;6140904;23;20053;-72
2022/09/05 01:56:10;;;;;;;1.35;1.25;;;9.10;99.90;;;;;;6126831;23;20021;-72
2022/09/05 01:58:55;;;;;;;1.77;1.20;;;9.10;99.90;;;;;;6152932;23;20021;-73
2022/09/05 02:01:32;;;;;;;2.08;1.52;;;9.10;99.90;;;;;;6153147;23;20018;-73
2022/09/05 02:04:37;;;;;;;2.15;1.58;;;9.10;99.90;;;;;;6152925;23;20030;-72
2022/09/05 02:07:16;;;;;;;1.98;1.33;;;9.10;99.90;;;;;;6153798;23;20035;-73
2022/09/05 02:10:14;;;;;;;1.95;1.77;;;9.10;99.90;;;;;;6153081;23;20018;-72
2022/09/05 02:12:47;;;;;;;2.63;1.40;;;9.10;99.90;;;;;;6126951;23;20036;-72
2022/09/05 02:15:19;;;;;;;1.50;1.40;;;9.20;99.90;;;;;;6152979;23;20574;-73
2022/09/05 02:17:53;;;;;;;1.40;1.30;;;9.20;99.90;;;;;;6153253;23;20642;-71
2022/09/05 02:20:28;;;;;;;2.85;1.35;;;9.20;99.90;;;;;;6153017;23;20026;-71
2022/09/05 02:23:05;;;;;;;1.42;1.25;;;9.10;99.90;;;;;;6127100;23;20112;-72
2022/09/05 02:25:46;;;;;;;2.10;1.55;;;9.10;99.90;;;;;;6152531;23;20470;-72
2022/09/05 02:28:20;;;;;;;1.35;1.25;;;9.10;99.90;;;;;;6126800;23;20354;-72
2022/09/05 02:30:53;;;;;;;2.65;1.55;;;9.00;99.90;;;;;;6126677;23;20033;-72
2022/09/05 02:33:30;;;;;;;1.60;1.40;;;8.90;99.90;;;;;;6153091;23;20108;-72
2022/09/05 02:36:04;;;;;;;1.77;1.58;;;;;;;;;;6152829;23;20300;-72
2022/09/05 02:38:48;;;;;;;1.33;1.23;;;8.70;99.90;;;;;;6104304;23;20022;-73
2022/09/05 02:41:22;;;;;;;;;;;8.70;99.90;;;;;;6155073;23;20110;-73
2022/09/05 02:43:57;;;;;;;4.97;1.60;;;8.60;99.90;;;;;;6155232;23;20007;-73
2022/09/05 02:46:31;;;;;;;3.08;1.83;;;8.60;99.90;;;;;;6154615;23;20369;-73
2022/09/05 02:49:07;;;;;;;1.30;1.17;;;8.50;99.90;;;;;;6154733;23;20025;-73
2022/09/05 02:51:39;;;;;;;1.67;1.58;;;8.50;99.90;;;;;;6154953;23;20025;-73
2022/09/05 02:54:11;;;;;;;1.83;1.53;;;8.50;99.90;;;;;;6154306;23;20022;-73
2022/09/05 02:56:55;;;;;;;1.80;1.60;;;8.50;99.90;;;;;;6154995;23;20037;-77
2022/09/05 02:59:41;;;;;;;1.52;1.42;;;8.40;99.90;;;;;;6128607;23;20028;-78
2022/09/05 03:02:21;;;;;;;4.13;1.40;;;8.40;99.90;;;;;;6128755;23;20339;-78
2022/09/05 03:04:58;;;;;;;3.75;2.05;;;8.30;99.90;;;;;;6128514;23;20108;-77
2022/09/05 03:07:48;;;;;;;4.63;1.80;;;8.30;99.90;;;;;;6154980;23;20049;-78
2022/09/05 03:10:31;;;;;;;2.50;1.70;;;8.20;99.90;;;;;;6128585;23;20068;-78
2022/09/05 03:13:57;;;;;;;2.80;1.80;;;8.10;99.90;;;;;;6128987;23;20021;-78
2022/09/05 03:17:16;;;;;;;3.15;1.40;;;8.10;99.90;;;;;;6135736;23;20359;-77
2022/09/05 03:20:20;;;;;;;1.73;1.63;;;8.10;99.90;;;;;;6128274;23;20027;-77
2022/09/05 03:23:29;;;;;;;2.63;1.33;;;8.10;99.90;;;;;;6152375;23;20109;-78
2022/09/05 03:27:00;;;;;;;3.45;1.73;;;8.00;99.90;;;;;;6100890;23;20056;-78
2022/09/05 03:30:07;;;;;;;1.85;1.73;;;8.00;99.90;;;;;;6016878;23;20031;-78
2022/09/05 03:33:01;;;;;;;3.28;1.65;;;7.90;99.90;;;;;;6155611;23;20025;-78
2022/09/05 03:36:17;;;;;;;3.58;1.67;;;7.90;99.90;;;;;;6152907;23;20021;-78
2022/09/05 03:39:45;;;;;;;8.00;2.22;;;7.90;99.90;;;;;;6125630;23;20358;-77
2022/09/05 03:42:39;;;;;;;11.52;2.10;;;8.00;99.90;;;;;;6154259;23;20025;-77
2022/09/05 03:45:28;;;;;;;;;;;7.90;99.90;;;;;;6128471;23;20052;-77
2022/09/05 03:48:29;;;;;;;1.98;1.50;;;7.90;99.90;;;;;;6154145;23;19928;-78
2022/09/05 03:51:21;;;;;;;2.97;1.73;;;7.90;99.90;;;;;;6127900;23;20076;-77
2022/09/05 03:54:13;;;;;;;2.97;1.90;;;7.80;99.90;;;;;;6128248;23;20072;-76
2022/09/05 03:57:23;;;;;;;8.52;2.20;;;7.80;99.90;;;;;;6152423;23;20037;-77
2022/09/05 04:00:08;;;;;;;3.05;2.38;;;7.80;99.90;;;;;;6103332;23;20431;-77
2022/09/05 04:03:05;;;;;;;6.10;2.55;;;7.90;99.90;;;;;;6128040;23;20053;-77
2022/09/05 04:05:39;;;;;;;3.00;2.13;;;7.90;99.90;;;;;;6151994;23;20026;-76
2022/09/05 04:08:13;;;;;;;2.20;1.60;;;8.00;99.90;;;;;;6154171;23;20108;-76
2022/09/05 04:10:52;;;;;;;5.20;1.98;;;8.00;99.90;;;;;;6153560;23;20113;-77
2022/09/05 04:13:26;;;;;;;5.32;2.33;;;8.10;99.90;;;;;;6153953;23;20085;-77
2022/09/05 04:16:10;;;;;;;7.75;2.95;;;8.20;99.90;;;;;;6127308;23;20362;-78
2022/09/05 04:18:42;;;;;;;8.90;2.45;;;8.20;99.90;;;;;;6103846;23;20029;-74
2022/09/05 04:21:16;;;;;;;2.45;2.00;;;8.20;99.90;;;;;;6152798;23;20115;-74
2022/09/05 04:24:01;;;;;;;4.15;2.10;;;8.20;99.90;;;;;;6127483;23;20384;-74
2022/09/05 04:26:54;;;;;;;2.90;2.00;;;8.20;99.90;;;;;;6153129;23;20410;-74
2022/09/05 04:29:39;;;;;;;6.40;2.10;;;8.20;99.90;;;;;;6153616;23;20036;-74
2022/09/05 04:32:22;;;;;;;6.35;2.40;;;8.10;99.90;;;;;;6126854;23;20032;-74
2022/09/05 04:35:33;;;;;;;4.53;1.80;;;8.10;99.90;;;;;;6151605;23;20021;-75
2022/09/05 04:38:13;;;;;;;6.03;2.28;;;8.10;99.90;;;;;;6118139;23;20025;-72
2022/09/05 04:40:57;;;;;;;3.47;2.25;;;8.10;99.90;;;;;;6153072;23;20072;-72
2022/09/05 04:43:34;;;;;;;4.78;2.20;;;8.20;99.90;;;;;;6153451;23;20032;-73
2022/09/05 04:46:22;;;;;;;2.22;2.00;;;8.20;99.90;;;;;;6153481;23;20108;-73
2022/09/05 04:49:00;;;;;;;5.25;2.00;;;8.30;99.90;;;;;;6153392;23;20049;-77
2022/09/05 04:52:00;;;;;;;5.68;2.20;;;8.30;99.90;;;;;;6153854;23;20021;-77
2022/09/05 04:54:35;;;;;;;2.25;2.03;;;8.40;99.90;;;;;;6127566;23;20025;-78
2022/09/05 04:57:18;;;;;;;5.40;2.00;;;8.60;99.90;;;;;;6153816;23;20072;-79
2022/09/05 04:59:54;;;;;;;3.15;2.35;;;8.60;99.90;;;;;;6103222;23;20037;-79
2022/09/05 05:02:32;;;;;;;5.82;2.17;;;8.70;99.90;;;;;;6154308;23;20022;-78
2022/09/05 05:05:03;;;;;;;6.03;2.10;;;8.70;99.90;;;;;;6105383;23;20064;-79
2022/09/05 05:07:45;;;;;;;7.25;4.00;;;8.60;99.90;;;;;;6154558;23;20022;-79
2022/09/05 05:10:24;;;;;;;3.88;2.58;;;8.60;99.90;;;;;;6153180;23;20022;-78
2022/09/05 05:13:07;;;;;;;2.95;2.47;;;8.50;99.90;;;;;;6130903;23;20021;-76
2022/09/05 05:15:46;;;;;;;2.65;2.17;;;8.50;99.90;;;;;;6161583;23;20051;-79
2022/09/05 05:18:25;;;;;;;3.40;2.50;;;8.50;99.90;;;;;;6163063;23;20089;-79
2022/09/05 05:21:04;;;;;;;7.07;2.85;;;8.50;99.90;;;;;;6162000;23;20072;-80
2022/09/05 05:23:38;;;;;;;13.88;3.15;;;8.50;99.90;;;;;;6137034;23;20052;-79
2022/09/05 05:26:20;;;;;;;3.42;2.40;;;8.60;99.90;;;;;;6164544;23;20025;-79
2022/09/05 05:29:01;;;;;;;4.05;2.13;;;8.70;99.90;;;;;;6131798;23;20021;-80
2022/09/05 05:31:31;;;;;;;3.38;2.25;;;8.80;99.90;;;;;;6151417;23;20031;-74
2022/09/05 05:34:13;;;;;;;2.22;1.90;;;8.90;99.90;;;;;;6150848;23;20100;-74
2022/09/05 05:36:50;;;;;;;2.03;1.80;;;8.90;99.90;;;;;;6150428;23;20028;-74
2022/09/05 05:39:49;;;;;;;3.58;1.92;;;9.00;99.90;;;;;;6150741;23;20440;-75
2022/09/05 05:42:24;;;;;;;3.90;1.52;;;9.20;99.90;;;;;;6120995;23;20026;-74
2022/09/05 05:44:56;;;;;;;3.33;1.33;;;9.30;99.90;;;;;;6148550;23;20029;-74
2022/09/05 05:47:27;;;;;;;3.03;1.33;;;9.40;99.90;;;;;;6152020;23;20048;-74
2022/09/05 05:50:03;;;;;;;4.40;2.22;;;9.60;99.90;;;;;;6150896;23;20025;-73
2022/09/05 05:53:26;;;;;;;5.63;1.70;;;10.20;99.90;;;;;;6126071;23;20022;-74
2022/09/05 05:56:21;;;;;;;1.65;1.35;;;11.20;99.90;;;;;;6117020;23;20028;-75
2022/09/05 05:59:35;;;;;;;2.63;1.40;;;12.50;99.90;;;;;;6152967;23;20481;-75
2022/09/05 06:03:06;;;;;;;1.95;1.25;;;13.50;99.90;;;;;;6151891;23;20022;-74
2022/09/05 06:06:05;;;;;;;1.20;1.10;;;14.70;99.90;;;;;;6161911;23;20108;-79
2022/09/05 06:09:31;;;;;;;6.47;2.95;;;15.50;99.90;;;;;;6155156;23;20057;-75
2022/09/05 06:13:10;;;;;;;3.70;1.10;;;15.50;99.90;;;;;;6127454;23;20381;-76
2022/09/05 06:16:40;;;;;;;2.75;2.10;;;15.30;99.90;;;;;;6080997;23;20021;-74
2022/09/05 06:19:51;;;;;;;2.15;1.38;;;15.20;99.90;;;;;;6149950;23;20085;-73
2022/09/05 06:23:19;;;;;;;4.43;1.10;;;15.00;99.90;;;;;;6159266;23;20025;-80
2022/09/05 06:26:28;;;;;;;2.08;1.48;;;15.00;99.90;;;;;;6130976;23;20029;-80
2022/09/05 06:29:31;;;;;;;1.48;1.13;;;15.00;99.90;;;;;;6127025;23;20022;-74
2022/09/05 06:32:13;;;;;;;2.83;1.48;;;15.20;99.90;;;;;;6152995;23;20093;-74
2022/09/05 06:35:06;;;;;;;;;;;15.70;99.90;;;;;;6126954;23;20032;-73
2022/09/05 06:37:45;;;;;;;3.25;1.23;;;16.20;99.90;;;;;;6127768;23;19979;-73
2022/09/05 06:40:19;;;;;;;4.97;1.58;;;16.40;99.90;;;;;;6152652;23;20462;-74
2022/09/05 06:43:21;;;;;;;3.35;1.70;;;16.30;99.90;;;;;;6152612;23;20366;-73
2022/09/05 06:46:14;;;;;;;2.50;2.30;;;16.30;99.90;;;;;;6151408;23;20029;-76
2022/09/05 06:48:46;;;;;;;;;;;16.50;99.90;;;;;;6153279;23;20021;-80
2022/09/05 06:52:13;;;;;;;3.43;2.50;;;16.50;99.90;;;;;;6126972;23;19999;-80
2022/09/05 06:55:35;;;;;;;2.85;2.60;;;16.40;99.90;;;;;;6156447;23;20470;-80
2022/09/05 07:01:54;;;;;;;3.17;2.42;;;15.40;99.90;;;;;;6125056;23;20021;-79
2022/09/05 07:04:37;;;;;;;4.22;1.83;;;15.10;99.90;;;;;;6130642;23;20466;-80
2022/09/05 07:07:37;;;;;;;3.70;1.50;;;16.00;99.90;;;;;;6156275;23;20477;-80
2022/09/05 07:10:14;;;;;;;7.55;1.67;;;17.10;99.90;;;;;;6152637;23;20021;-74
2022/09/05 07:12:49;;;;;;;1.23;1.10;;;18.20;99.90;;;;;;6151500;23;20075;-75
2022/09/05 07:15:34;;;;;;;1.90;1.05;;;19.40;99.90;;;;;;6101109;23;20025;-81
2022/09/05 07:18:16;;;;;;;1.27;0.80;;;20.50;99.90;;;;;;6127489;23;20025;-81
2022/09/05 07:20:52;;;;;;;2.13;1.30;;;21.10;99.90;;;;;;6155299;23;20080;-78
2022/09/05 07:23:46;;;;;;;0.90;0.60;;;21.10;99.90;;;;;;6152354;23;20053;-78
2022/09/05 07:26:21;;;;;;;2.08;0.50;;;21.40;99.90;;;;;;6153039;23;20140;-78
2022/09/05 07:28:56;;;;;;;1.70;0.80;;;21.00;98.00;;;;;;6153102;23;20394;-78
2022/09/05 07:31:26;;;;;;;0.57;0.57;;;20.40;97.70;;;;;;6150089;23;20367;-78
2022/09/05 07:34:12;;;;;;;0.55;0.40;;;19.60;99.30;;;;;;6151558;23;20044;-79
2022/09/05 07:36:47;;;;;;;2.25;0.63;;;18.90;99.90;;;;;;6123705;23;20060;-78
2022/09/05 07:39:22;;;;;;;1.45;0.88;;;18.00;99.90;;;;;;6151511;23;20072;-77
2022/09/05 07:41:53;;;;;;;0.50;0.50;;;16.90;99.90;;;;;;6151493;23;20107;-77
2022/09/05 07:44:26;;;;;;;2.90;0.87;;;16.10;99.90;;;;;;6151802;23;20035;-78
2022/09/05 07:47:03;;;;;;;1.88;0.50;;;15.50;99.90;;;;;;6152451;23;20277;-77
2022/09/05 07:49:35;;;;;;;1.20;0.60;;;15.00;99.90;;;;;;6152090;23;20105;-78
2022/09/05 07:52:10;;;;;;;0.68;0.40;;;14.90;99.90;;;;;;6153260;23;20068;-77
2022/09/05 07:54:41;;;;;;;0.55;0.52;;;14.80;99.90;;;;;;6150168;23;20049;-78
2022/09/05 07:57:11;;;;;;;2.58;1.00;;;14.90;99.90;;;;;;6103613;23;20034;-76
2022/09/05 07:59:40;;;;;;;0.50;0.43;;;15.10;99.90;;;;;;6153762;23;20052;-77
2022/09/05 08:02:10;;;;;;;1.02;0.50;;;15.70;99.90;;;;;;6126752;23;20026;-73
2022/09/05 08:04:40;;;;;;;6.00;1.20;;;16.30;99.90;;;;;;6152102;23;20043;-72
2022/09/05 08:07:12;;;;;;;3.53;0.60;;;16.60;99.90;;;;;;6151873;23;20030;-73
2022/09/05 08:09:48;;;;;;;3.17;0.43;;;16.40;99.90;;;;;;6152162;23;20104;-72
2022/09/05 08:12:20;;;;;;;0.40;0.40;;;15.80;99.90;;;;;;6126502;23;20022;-73
2022/09/05 08:15:05;;;;;;;5.78;0.68;;;15.20;99.90;;;;;;6152975;23;20025;-73
2022/09/05 08:17:40;;;;;;;1.65;0.47;;;14.80;99.90;;;;;;6148708;23;20489;-78
2022/09/05 08:20:24;;;;;;;0.47;0.47;;;14.50;99.90;;;;;;6152455;23;20048;-74
2022/09/05 08:23:04;;;;;;;6.13;0.75;;;14.50;99.90;;;;;;6151511;23;20021;-77
2022/09/05 08:25:37;;;;;;;2.90;0.80;;;14.50;99.90;;;;;;6153370;23;20026;-78
2022/09/05 08:28:18;;;;;;;9.10;1.38;;;14.40;99.90;;;;;;6153173;23;20104;-78
2022/09/05 08:30:52;;;;;;;1.42;0.50;;;14.30;99.90;;;;;;6124321;23;20022;-79
2022/09/05 08:33:24;;;;;;;4.10;0.50;;;14.20;99.90;;;;;;6148213;23;20343;-78
2022/09/05 08:35:56;;;;;;;0.50;0.38;;;14.20;99.90;;;;;;6150852;23;20088;-79
2022/09/05 08:38:26;;;;;;;0.80;0.50;;;14.20;99.90;;;;;;6125049;23;20513;-79
2022/09/05 08:41:07;;;;;;;2.63;0.40;;;14.30;99.90;;;;;;6152116;23;20253;-78
2022/09/05 08:43:41;;;;;;;0.70;0.68;;;14.50;99.90;;;;;;6125908;23;20357;-78
2022/09/05 08:46:17;;;;;;;1.73;1.25;;;14.70;99.90;;;;;;6152848;23;20052;-78
2022/09/05 08:49:39;;;;;;;0.57;0.50;;;15.10;99.90;;;;;;6153880;23;20053;-78
2022/09/05 08:52:12;;;;;;;8.68;1.10;;;15.60;99.90;;;;;;6127762;23;20029;-80
2022/09/05 08:54:56;;;;;;;1.20;1.10;;;16.30;99.90;;;;;;6151723;23;20036;-78
2022/09/05 08:57:58;;;;;;;1.58;0.60;;;17.50;99.90;;;;;;6126848;23;20421;-79
2022/09/05 09:00:30;;;;;;;1.58;0.65;;;18.80;99.90;;;;;;6153273;23;20036;-79
2022/09/05 09:03:21;;;;;;;0.70;0.60;;;19.60;99.90;;;;;;6126728;23;20025;-79
2022/09/05 09:06:21;;;;;;;1.60;1.23;;;19.90;99.90;;;;;;6153011;23;20025;-79
2022/09/05 09:09:11;;;;;;;1.17;0.70;;;20.20;99.90;;;;;;6150578;23;20109;-79
2022/09/05 09:11:48;;;;;;;0.88;0.50;;;20.50;99.90;;;;;;6126619;23;20060;-80
2022/09/05 09:14:38;;;;;;;4.47;1.02;;;21.20;99.90;;;;;;6152352;23;20025;-79
2022/09/05 09:17:23;;;;;;;0.65;0.40;;;21.50;99.30;;;;;;6153319;23;20121;-79
2022/09/05 09:20:09;;;;;;;0.50;0.50;;;21.20;98.10;;;;;;6126806;23;20121;-79
2022/09/05 09:22:42;;;;;;;11.35;1.90;;;20.70;96.60;;;;;;6152350;23;20033;-79
2022/09/05 09:25:15;;;;;;;2.80;1.10;;;20.30;98.00;;;;;;6152805;23;20111;-78
2022/09/05 09:28:29;;;;;;;3.10;0.60;;;19.50;97.70;;;;;;6152764;23;20116;-79
2022/09/05 09:31:02;;;;;;;;;;;18.60;99.40;;;;;;6126664;23;20036;-78
2022/09/05 09:33:45;;;;;;;0.65;0.65;;;17.60;99.90;;;;;;6152960;23;20328;-80
2022/09/05 09:36:39;;;;;;;0.70;0.70;;;17.10;99.90;;;;;;6152679;23;20053;-78
2022/09/05 09:39:24;;;;;;;1.00;0.60;;;16.80;99.90;;;;;;6152553;23;20443;-79
2022/09/05 09:42:06;;;;;;;2.25;1.30;;;16.90;99.90;;;;;;6152955;23;20104;-75
2022/09/05 09:45:27;;;;;;;2.92;0.85;;;17.30;99.90;;;;;;6152626;23;20032;-72
2022/09/05 09:48:40;;;;;;;3.95;1.58;;;17.80;99.90;;;;;;6125158;23;20028;-73
2022/09/05 09:51:31;;;;;;;1.17;0.93;;;18.10;99.90;;;;;;6126200;23;20108;-74
2022/09/05 09:54:29;;;;;;;2.97;1.05;;;18.40;99.90;;;;;;6151907;23;20026;-74
2022/09/05 09:57:24;;;;;;;4.68;1.33;;;18.60;99.90;;;;;;6126786;23;20068;-73
2022/09/05 10:00:08;;;;;;;3.42;1.30;;;19.10;99.90;;;;;;6151934;23;20017;-74
2022/09/05 10:03:18;;;;;;;1.63;1.27;;;19.00;99.90;;;;;;6152238;23;20028;-73
2022/09/05 10:06:16;;;;;;;1.25;1.15;;;18.80;99.90;;;;;;6143011;23;20021;-74
2022/09/05 10:09:07;;;;;;;2.22;0.95;;;18.50;99.90;;;;;;6152306;23;20028;-73
2022/09/05 10:11:40;;;;;;;1.42;1.00;;;18.10;99.90;;;;;;6101868;23;20021;-74
2022/09/05 10:14:57;;;;;;;3.08;0.98;;;17.90;99.90;;;;;;6125849;23;20397;-74
2022/09/05 10:17:58;;;;;;;1.63;1.23;;;17.90;99.90;;;;;;6152039;23;20021;-73
2022/09/05 10:20:38;;;;;;;1.20;1.08;;;19.00;99.90;;;;;;6151971;23;20025;-73
2022/09/05 10:23:54;;;;;;;1.05;0.70;;;21.30;99.90;;;;;;6152285;23;20032;-74
2022/09/05 10:27:27;;;;;;;0.80;0.80;;;22.30;93.60;;;;;;6152086;23;20056;-73
2022/09/05 10:30:18;;;;;;;1.13;1.00;;;23.10;92.10;;;;;;6042463;23;20043;-75
2022/09/05 10:33:16;;;;;;;0.82;0.80;;;25.10;86.10;;;;;;6145626;23;20028;-74
2022/09/05 10:35:50;;;;;;;2.75;1.10;;;26.40;72.90;;;;;;6152029;23;20025;-74
2022/09/05 10:38:27;;;;;;;1.10;1.10;;;25.00;70.70;;;;;;6152162;23;20036;-73
2022/09/05 10:41:07;;;;;;;0.90;0.73;;;23.00;74.70;;;;;;6126488;23;20026;-74
2022/09/05 10:43:47;;;;;;;2.30;0.70;;;21.20;79.90;;;;;;6152361;23;20029;-74
2022/09/05 10:46:27;;;;;;;1.55;0.70;;;19.50;84.90;;;;;;6151812;23;20141;-74
2022/09/05 10:49:03;;;;;;;0.80;0.50;;;19.50;90.00;;;;;;6124383;23;20529;-74
2022/09/05 10:51:39;;;;;;;2.45;0.80;;;19.90;87.10;;;;;;6150482;23;20037;-73
2022/09/05 10:54:29;;;;;;;0.80;0.80;;;19.60;89.10;;;;;;6122651;23;20085;-75
2022/09/05 10:57:14;;;;;;;2.95;0.60;;;18.90;88.20;;;;;;6151762;23;20381;-73
2022/09/05 11:00:06;;;;;;;1.92;0.68;;;18.30;90.50;;;;;;6152152;23;20458;-73
2022/09/05 11:02:40;;;;;;;0.60;0.60;;;17.90;91.00;;;;;;6152170;23;20025;-73
2022/09/05 11:05:23;;;;;;;1.02;0.50;;;18.50;90.60;;;;;;6152286;23;20018;-74
2022/09/05 11:08:04;;;;;;;0.82;0.70;;;18.90;88.90;;;;;;6150826;23;20044;-73
2022/09/05 11:10:37;;;;;;;1.30;1.02;;;18.50;91.50;;;;;;6101820;23;20035;-78
2022/09/05 11:13:16;;;;;;;4.50;0.80;;;;;;;;;;6126552;23;20405;-80
2022/09/05 11:15:57;;;;;;;1.75;0.60;;;17.00;92.50;;;;;;6152594;23;20065;-81
2022/09/05 11:18:53;;;;;;;1.15;0.80;;;16.30;95.50;;;;;;6153686;23;20411;-82
2022/09/05 11:21:36;;;;;;;5.45;1.00;;;15.80;97.30;;;;;;6151371;23;20031;-81
2022/09/05 11:24:11;;;;;;;;;;;15.50;99.90;;;;;;6127923;23;20022;-81
2022/09/05 11:26:46;;;;;;;1.42;0.95;;;15.30;99.90;;;;;;6151429;23;19927;-81
2022/09/05 11:29:18;;;;;;;3.95;0.70;;;15.30;99.90;;;;;;6152421;23;20358;-80
2022/09/05 11:32:08;;;;;;;1.20;0.80;;;16.00;99.90;;;;;;6153752;23;20033;-80
2022/09/05 11:35:10;;;;;;;3.72;1.08;;;18.10;99.50;;;;;;6153063;23;20049;-79
2022/09/05 11:38:19;;;;;;;1.00;0.88;;;21.00;92.50;;;;;;6152706;23;20140;-77
2022/09/05 11:41:25;;;;;;;0.85;0.60;;;23.60;77.20;;;;;;6102010;23;20049;-75
2022/09/05 11:44:25;;;;;;;0.50;0.50;;;25.60;69.40;;;;;;6117956;23;20364;-77
2022/09/05 11:47:30;;;;;;;0.50;0.50;;;26.50;65.80;;;;;;6124736;23;20099;-76
2022/09/05 11:50:59;;;;;;;0.40;0.40;;;25.30;63.50;;;;;;6150677;23;20029;-76
2022/09/05 11:54:46;;;;;;;0.63;0.40;;;22.80;67.10;;;;;;6125466;23;20120;-76
2022/09/05 11:57:37;;;;;;;1.05;0.70;;;20.80;74.10;;;;;;6123970;23;20045;-76
2022/09/05 12:00:26;;;;;;;3.35;0.95;;;19.40;81.10;;;;;;6150350;23;20605;-77
2022/09/05 12:03:28;;;;;;;2.40;0.63;;;18.80;81.90;;;;;;6150545;23;20076;-77
2022/09/05 12:06:56;;;;;;;2.72;0.80;;;18.30;83.40;;;;;;6150605;23;20100;-77
2022/09/05 12:09:37;;;;;;;1.30;0.75;;;17.80;84.30;;;;;;6150885;23;20470;-76
2022/09/05 12:12:23;;;;;;;1.92;1.00;;;17.70;87.00;;;;;;6153475;23;20108;-76
2022/09/05 12:15:09;;;;;;;1.10;0.70;;;17.40;89.10;;;;;;6152959;23;20026;-76
2022/09/05 12:17:51;;;;;;;0.70;0.70;;;17.10;90.40;;;;;;6126754;23;20025;-75
2022/09/05 12:20:30;;;;;;;1.38;0.80;;;16.80;91.30;;;;;;6151250;23;20068;-75
2022/09/05 12:23:03;;;;;;;2.17;0.98;;;16.70;92.70;;;;;;6152929;23;20022;-82
2022/09/05 12:25:47;;;;;;;1.25;1.15;;;16.60;92.70;;;;;;6127250;23;20033;-75
2022/09/05 12:28:28;;;;;;;0.82;0.82;;;16.80;92.60;;;;;;6153123;23;20076;-74
2022/09/05 12:31:15;;;;;;;1.27;0.98;;;16.90;92.90;;;;;;6127044;23;20088;-74
2022/09/05 12:33:49;;;;;;;2.05;1.00;;;16.80;92.10;;;;;;6104251;23;20025;-81
2022/09/05 12:36:30;;;;;;;2.05;0.95;;;16.60;93.50;;;;;;6153850;23;20080;-81
2022/09/05 12:39:18;;;;;;;1.55;1.17;;;16.50;93.70;;;;;;6153739;23;20096;-83
2022/09/05 12:41:53;;;;;;;1.38;1.27;;;16.30;93.90;;;;;;6153086;23;20024;-83
2022/09/05 12:44:40;;;;;;;2.05;1.10;;;16.10;94.90;;;;;;6134191;23;20032;-81
2022/09/05 12:47:10;;;;;;;2.15;1.15;;;15.90;95.40;;;;;;6114444;23;20363;-83
2022/09/05 12:49:44;;;;;;;0.80;0.80;;;15.70;96.40;;;;;;6154143;23;20462;-81
2022/09/05 12:52:19;;;;;;;0.88;0.73;;;15.50;96.70;;;;;;6154727;23;20470;-80
2022/09/05 12:54:53;;;;;;;0.90;0.73;;;15.40;96.20;;;;;;6159782;23;20025;-80
2022/09/05 12:57:26;;;;;;;2.85;1.17;;;15.20;96.30;;;;;;6150102;23;20092;-79
2022/09/05 12:59:58;;;;;;;2.13;0.85;;;15.10;98.00;;;;;;6151847;23;20035;-79
2022/09/05 13:02:31;;;;;;;1.02;0.90;;;15.00;96.90;;;;;;6126259;23;20370;-80
2022/09/05 13:05:11;;;;;;;1.17;0.88;;;15.00;98.80;;;;;;6152191;23;20021;-79
2022/09/05 13:07:42;;;;;;;1.40;0.88;;;15.00;98.70;;;;;;6151166;23;20056;-81
2022/09/05 13:10:20;;;;;;;1.02;1.02;;;15.00;99.00;;;;;;6153071;23;20021;-73
2022/09/05 13:12:53;;;;;;;3.95;1.20;;;15.00;97.80;;;;;;6126750;23;20045;-79
2022/09/05 13:15:27;;;;;;;0.80;0.80;;;15.00;98.60;;;;;;6151866;23;20025;-75
2022/09/05 13:18:05;;;;;;;4.07;1.40;;;15.10;98.30;;;;;;6150062;23;20438;-74
2022/09/05 13:20:43;;;;;;;1.23;1.13;;;15.10;98.90;;;;;;6152229;23;20030;-75
2022/09/05 13:23:22;;;;;;;1.30;1.10;;;15.30;99.40;;;;;;6153724;23;20064;-81
2022/09/05 13:26:06;;;;;;;1.23;1.13;;;15.30;98.60;;;;;;6101555;23;20025;-75
2022/09/05 13:28:50;;;;;;;1.92;1.45;;;15.20;98.80;;;;;;6153441;23;20060;-82
2022/09/05 13:31:59;;;;;;;1.58;1.13;;;15.10;99.90;;;;;;6153695;23;20370;-81
2022/09/05 13:34:31;;;;;;;1.35;1.23;;;15.00;99.90;;;;;;6126370;23;20052;-75
2022/09/05 13:37:06;;;;;;;2.15;1.60;;;14.90;99.90;;;;;;6152061;23;20192;-78
2022/09/05 13:39:48;;;;;;;4.45;1.63;;;14.80;99.90;;;;;;6152563;23;20027;-81
2022/09/05 13:42:20;;;;;;;2.97;1.75;;;14.70;99.90;;;;;;6151268;23;20052;-74
2022/09/05 13:44:55;;;;;;;5.38;3.10;;;14.50;99.90;;;;;;6150849;23;20072;-75
2022/09/05 13:47:50;;;;;;;4.72;2.20;;;14.50;99.90;;;;;;6150624;23;20053;-82
2022/09/05 13:50:25;;;;;;;2.53;1.50;;;14.50;99.90;;;;;;6151288;23;20021;-81
2022/09/05 13:53:03;;;;;;;2.45;1.58;;;14.70;99.90;;;;;;6124661;23;20025;-81
2022/09/05 13:55:42;;;;;;;1.63;1.52;;;14.80;99.90;;;;;;6151867;23;20075;-82
2022/09/05 13:58:17;;;;;;;2.88;1.77;;;15.00;99.90;;;;;;6153651;23;20045;-75
2022/09/05 14:01:42;;;;;;;1.63;1.52;;;15.10;99.90;;;;;;6126751;23;20108;-81
2022/09/05 14:05:01;;;;;;;1.90;1.80;;;15.50;99.90;;;;;;6152893;23;20021;-74
2022/09/05 14:08:20;;;;;;;1.80;1.70;;;16.20;99.90;;;;;;6125541;23;20061;-74
2022/09/05 14:11:48;;;;;;;1.80;1.70;;;16.10;98.90;;;;;;6151289;23;20021;-74
2022/09/05 14:14:21;;;;;;;1.98;1.52;;;15.80;98.40;;;;;;6148435;23;20021;-74
2022/09/05 14:17:04;;;;;;;;;;;15.50;99.10;;;;;;6127096;23;20104;-75
2022/09/05 14:22:40;;;;;;;3.83;2.03;;;15.40;99.70;;;;;;6124845;23;20021;-73
2022/09/05 14:25:17;;;;;;;4.03;2.38;;;15.60;99.80;;;;;;6150071;23;20033;-80
2022/09/05 14:27:47;;;;;;;3.80;2.20;;;16.10;99.50;;;;;;6125166;23;20026;-78
2022/09/05 14:30:36;;;;;;;2.08;1.80;;;16.10;98.10;;;;;;6153124;23;20052;-80
2022/09/05 14:33:33;;;;;;;2.42;2.15;;;16.20;97.00;;;;;;6127579;23;20060;-79
2022/09/05 14:36:22;;;;;;;2.63;2.40;;;15.90;97.20;;;;;;6152159;23;20415;-79
2022/09/05 14:39:42;;;;;;;2.05;1.85;;;15.50;98.70;;;;;;6154077;23;20022;-79
2022/09/05 14:42:35;;;;;;;5.78;2.45;;;15.20;99.20;;;;;;6154151;23;20025;-78